sensor_id;sensor_type;location;lat;lon;timestamp;P1;durP1;ratioP1;P2;durP2;ratioP2
4835;SDS011;66719;51.226;6.902;2023-04-24T00:02:17;7.00;;;1.30;;
4835;SDS011;66719;51.226;6.902;2023-04-24T00:04:45;8.40;;;1.60;;
4835;SDS011;66719;51.226;6.902;2023-04-24T00:07:11;8.97;;;1.73;;
4835;SDS011;66719;51.226;6.902;2023-04-24T00:09:39;7.40;;;1.70;;
4835;SDS011;66719;51.226;6.902;2023-04-24T00:12:05;7.77;;;1.40;;
4835;SDS011;66719;51.226;6.902;2023-04-24T00:14:32;7.80;;;1.50;;
4835;SDS011;66719;51.226;6.902;2023-04-24T00:16:58;8.10;;;1.57;;
4835;SDS011;66719;51.226;6.902;2023-04-24T00:19:25;7.63;;;1.33;;
4835;SDS011;66719;51.226;6.902;2023-04-24T00:21:51;7.87;;;1.67;;
4835;SDS011;66719;51.226;6.902;2023-04-24T00:24:18;9.07;;;1.73;;
4835;SDS011;66719;51.226;6.902;2023-04-24T00:26:45;10.00;;;1.80;;
4835;SDS011;66719;51.226;6.902;2023-04-24T00:29:11;10.87;;;1.73;;
4835;SDS011;66719;51.226;6.902;2023-04-24T00:31:38;8.80;;;1.63;;
4835;SDS011;66719;51.226;6.902;2023-04-24T00:34:04;9.77;;;1.67;;
4835;SDS011;66719;51.226;6.902;2023-04-24T00:36:31;7.30;;;1.50;;
4835;SDS011;66719;51.226;6.902;2023-04-24T00:38:58;10.80;;;1.67;;
4835;SDS011;66719;51.226;6.902;2023-04-24T00:41:25;7.97;;;1.70;;
4835;SDS011;66719;51.226;6.902;2023-04-24T00:43:52;9.70;;;2.87;;
4835;SDS011;66719;51.226;6.902;2023-04-24T00:46:18;7.73;;;1.80;;
4835;SDS011;66719;51.226;6.902;2023-04-24T00:48:45;7.77;;;1.80;;
4835;SDS011;66719;51.226;6.902;2023-04-24T00:51:12;7.93;;;1.57;;
4835;SDS011;66719;51.226;6.902;2023-04-24T00:53:39;8.27;;;1.93;;
4835;SDS011;66719;51.226;6.902;2023-04-24T00:56:05;8.80;;;2.10;;
4835;SDS011;66719;51.226;6.902;2023-04-24T00:58:32;9.87;;;1.80;;
4835;SDS011;66719;51.226;6.902;2023-04-24T01:00:59;7.80;;;1.70;;
4835;SDS011;66719;51.226;6.902;2023-04-24T01:03:29;7.57;;;1.73;;
4835;SDS011;66719;51.226;6.902;2023-04-24T01:05:58;8.40;;;2.10;;
4835;SDS011;66719;51.226;6.902;2023-04-24T01:08:24;10.93;;;2.00;;
4835;SDS011;66719;51.226;6.902;2023-04-24T01:10:54;8.07;;;1.90;;
4835;SDS011;66719;51.226;6.902;2023-04-24T01:13:22;7.90;;;1.97;;
4835;SDS011;66719;51.226;6.902;2023-04-24T01:15:49;8.40;;;1.87;;
4835;SDS011;66719;51.226;6.902;2023-04-24T01:18:16;12.93;;;2.30;;
4835;SDS011;66719;51.226;6.902;2023-04-24T01:20:42;7.80;;;2.07;;
4835;SDS011;66719;51.226;6.902;2023-04-24T01:23:11;8.63;;;2.30;;
4835;SDS011;66719;51.226;6.902;2023-04-24T01:25:37;8.47;;;2.30;;
4835;SDS011;66719;51.226;6.902;2023-04-24T01:28:04;12.10;;;2.80;;
4835;SDS011;66719;51.226;6.902;2023-04-24T01:30:31;9.57;;;3.00;;
4835;SDS011;66719;51.226;6.902;2023-04-24T01:32:58;9.67;;;3.50;;
4835;SDS011;66719;51.226;6.902;2023-04-24T01:35:25;13.23;;;4.20;;
4835;SDS011;66719;51.226;6.902;2023-04-24T01:37:52;16.10;;;4.47;;
4835;SDS011;66719;51.226;6.902;2023-04-24T01:40:18;14.63;;;3.73;;
4835;SDS011;66719;51.226;6.902;2023-04-24T01:42:45;13.00;;;4.57;;
4835;SDS011;66719;51.226;6.902;2023-04-24T01:45:11;12.83;;;4.30;;
4835;SDS011;66719;51.226;6.902;2023-04-24T01:47:39;12.13;;;4.40;;
4835;SDS011;66719;51.226;6.902;2023-04-24T01:50:06;12.87;;;4.63;;
4835;SDS011;66719;51.226;6.902;2023-04-24T01:52:33;12.50;;;4.30;;
4835;SDS011;66719;51.226;6.902;2023-04-24T01:55:02;12.60;;;4.47;;
4835;SDS011;66719;51.226;6.902;2023-04-24T01:57:30;12.83;;;4.13;;
4835;SDS011;66719;51.226;6.902;2023-04-24T02:00:00;12.97;;;5.00;;
4835;SDS011;66719;51.226;6.902;2023-04-24T02:02:27;11.43;;;3.90;;
4835;SDS011;66719;51.226;6.902;2023-04-24T02:04:55;14.13;;;5.00;;
4835;SDS011;66719;51.226;6.902;2023-04-24T02:07:22;12.30;;;4.80;;
4835;SDS011;66719;51.226;6.902;2023-04-24T02:09:48;14.70;;;4.63;;
4835;SDS011;66719;51.226;6.902;2023-04-24T02:12:15;14.63;;;4.70;;
4835;SDS011;66719;51.226;6.902;2023-04-24T02:14:43;13.10;;;4.50;;
4835;SDS011;66719;51.226;6.902;2023-04-24T02:17:10;15.23;;;5.27;;
4835;SDS011;66719;51.226;6.902;2023-04-24T02:19:39;16.73;;;5.17;;
4835;SDS011;66719;51.226;6.902;2023-04-24T02:22:06;15.60;;;4.77;;
4835;SDS011;66719;51.226;6.902;2023-04-24T02:24:32;12.40;;;4.97;;
4835;SDS011;66719;51.226;6.902;2023-04-24T02:26:59;12.23;;;4.77;;
4835;SDS011;66719;51.226;6.902;2023-04-24T02:29:26;14.60;;;6.00;;
4835;SDS011;66719;51.226;6.902;2023-04-24T02:31:52;18.83;;;5.50;;
4835;SDS011;66719;51.226;6.902;2023-04-24T02:34:19;13.30;;;5.13;;
4835;SDS011;66719;51.226;6.902;2023-04-24T02:36:45;15.80;;;6.67;;
4835;SDS011;66719;51.226;6.902;2023-04-24T02:39:12;15.17;;;5.97;;
4835;SDS011;66719;51.226;6.902;2023-04-24T02:41:39;17.40;;;6.03;;
4835;SDS011;66719;51.226;6.902;2023-04-24T02:44:06;16.10;;;6.20;;
4835;SDS011;66719;51.226;6.902;2023-04-24T02:46:32;17.70;;;6.90;;
4835;SDS011;66719;51.226;6.902;2023-04-24T02:48:59;15.50;;;6.80;;
4835;SDS011;66719;51.226;6.902;2023-04-24T02:51:25;14.50;;;6.17;;
4835;SDS011;66719;51.226;6.902;2023-04-24T02:53:52;15.97;;;6.83;;
4835;SDS011;66719;51.226;6.902;2023-04-24T02:56:19;15.27;;;6.97;;
4835;SDS011;66719;51.226;6.902;2023-04-24T02:58:45;22.23;;;7.40;;
4835;SDS011;66719;51.226;6.902;2023-04-24T03:01:12;20.27;;;7.60;;
4835;SDS011;66719;51.226;6.902;2023-04-24T03:03:38;17.37;;;7.47;;
4835;SDS011;66719;51.226;6.902;2023-04-24T03:06:06;17.43;;;8.10;;
4835;SDS011;66719;51.226;6.902;2023-04-24T03:08:34;17.33;;;7.70;;
4835;SDS011;66719;51.226;6.902;2023-04-24T03:11:00;17.00;;;8.10;;
4835;SDS011;66719;51.226;6.902;2023-04-24T03:13:27;18.33;;;7.70;;
4835;SDS011;66719;51.226;6.902;2023-04-24T03:15:53;18.10;;;8.00;;
4835;SDS011;66719;51.226;6.902;2023-04-24T03:18:20;19.27;;;8.37;;
4835;SDS011;66719;51.226;6.902;2023-04-24T03:20:46;21.17;;;8.00;;
4835;SDS011;66719;51.226;6.902;2023-04-24T03:23:13;19.13;;;7.53;;
4835;SDS011;66719;51.226;6.902;2023-04-24T03:25:40;16.43;;;8.00;;
4835;SDS011;66719;51.226;6.902;2023-04-24T03:28:08;19.30;;;8.17;;
4835;SDS011;66719;51.226;6.902;2023-04-24T03:30:35;17.17;;;7.70;;
4835;SDS011;66719;51.226;6.902;2023-04-24T03:33:01;17.50;;;8.13;;
4835;SDS011;66719;51.226;6.902;2023-04-24T03:35:28;17.33;;;7.70;;
4835;SDS011;66719;51.226;6.902;2023-04-24T03:37:54;17.67;;;7.70;;
4835;SDS011;66719;51.226;6.902;2023-04-24T03:40:21;16.53;;;7.70;;
4835;SDS011;66719;51.226;6.902;2023-04-24T03:42:47;17.63;;;7.67;;
4835;SDS011;66719;51.226;6.902;2023-04-24T03:45:14;17.30;;;7.80;;
4835;SDS011;66719;51.226;6.902;2023-04-24T03:47:41;15.73;;;7.80;;
4835;SDS011;66719;51.226;6.902;2023-04-24T03:50:07;15.37;;;7.00;;
4835;SDS011;66719;51.226;6.902;2023-04-24T03:52:37;18.33;;;8.17;;
4835;SDS011;66719;51.226;6.902;2023-04-24T03:55:04;16.43;;;8.00;;
4835;SDS011;66719;51.226;6.902;2023-04-24T03:57:31;16.93;;;8.07;;
4835;SDS011;66719;51.226;6.902;2023-04-24T03:59:57;16.83;;;8.23;;
4835;SDS011;66719;51.226;6.902;2023-04-24T04:02:23;18.97;;;7.60;;
4835;SDS011;66719;51.226;6.902;2023-04-24T04:04:50;16.07;;;7.87;;
4835;SDS011;66719;51.226;6.902;2023-04-24T04:07:17;19.50;;;8.10;;
4835;SDS011;66719;51.226;6.902;2023-04-24T04:09:43;19.13;;;7.93;;
4835;SDS011;66719;51.226;6.902;2023-04-24T04:12:10;15.80;;;7.73;;
4835;SDS011;66719;51.226;6.902;2023-04-24T04:14:37;21.37;;;8.73;;
4835;SDS011;66719;51.226;6.902;2023-04-24T04:17:04;19.10;;;7.17;;
4835;SDS011;66719;51.226;6.902;2023-04-24T04:19:30;20.70;;;8.07;;
4835;SDS011;66719;51.226;6.902;2023-04-24T04:21:57;17.00;;;7.90;;
4835;SDS011;66719;51.226;6.902;2023-04-24T04:24:23;18.17;;;8.07;;
4835;SDS011;66719;51.226;6.902;2023-04-24T04:26:50;16.63;;;7.33;;
4835;SDS011;66719;51.226;6.902;2023-04-24T04:29:18;19.67;;;7.80;;
4835;SDS011;66719;51.226;6.902;2023-04-24T04:31:45;17.70;;;8.10;;
4835;SDS011;66719;51.226;6.902;2023-04-24T04:34:11;17.30;;;7.83;;
4835;SDS011;66719;51.226;6.902;2023-04-24T04:36:38;18.77;;;8.03;;
4835;SDS011;66719;51.226;6.902;2023-04-24T04:39:06;19.73;;;8.53;;
4835;SDS011;66719;51.226;6.902;2023-04-24T04:41:33;23.07;;;8.10;;
4835;SDS011;66719;51.226;6.902;2023-04-24T04:44:01;15.60;;;7.60;;
4835;SDS011;66719;51.226;6.902;2023-04-24T04:46:30;16.47;;;7.40;;
4835;SDS011;66719;51.226;6.902;2023-04-24T04:48:59;14.73;;;6.83;;
4835;SDS011;66719;51.226;6.902;2023-04-24T04:51:27;17.13;;;7.73;;
4835;SDS011;66719;51.226;6.902;2023-04-24T04:53:54;20.03;;;8.07;;
4835;SDS011;66719;51.226;6.902;2023-04-24T04:56:20;20.10;;;8.83;;
4835;SDS011;66719;51.226;6.902;2023-04-24T04:58:47;17.43;;;8.10;;
4835;SDS011;66719;51.226;6.902;2023-04-24T05:01:14;19.53;;;7.40;;
4835;SDS011;66719;51.226;6.902;2023-04-24T05:03:40;18.10;;;7.50;;
4835;SDS011;66719;51.226;6.902;2023-04-24T05:06:07;22.23;;;7.67;;
4835;SDS011;66719;51.226;6.902;2023-04-24T05:08:34;17.37;;;7.40;;
4835;SDS011;66719;51.226;6.902;2023-04-24T05:11:00;16.97;;;7.90;;
4835;SDS011;66719;51.226;6.902;2023-04-24T05:13:27;17.50;;;7.50;;
4835;SDS011;66719;51.226;6.902;2023-04-24T05:16:06;15.10;;;6.87;;
4835;SDS011;66719;51.226;6.902;2023-04-24T05:18:32;17.33;;;6.77;;
4835;SDS011;66719;51.226;6.902;2023-04-24T05:20:59;16.47;;;7.00;;
4835;SDS011;66719;51.226;6.902;2023-04-24T05:23:26;18.33;;;6.27;;
4835;SDS011;66719;51.226;6.902;2023-04-24T05:25:52;19.07;;;7.03;;
4835;SDS011;66719;51.226;6.902;2023-04-24T05:28:19;17.77;;;7.77;;
4835;SDS011;66719;51.226;6.902;2023-04-24T05:30:46;17.20;;;6.90;;
4835;SDS011;66719;51.226;6.902;2023-04-24T05:33:12;14.90;;;6.20;;
4835;SDS011;66719;51.226;6.902;2023-04-24T05:35:40;16.23;;;6.50;;
4835;SDS011;66719;51.226;6.902;2023-04-24T05:38:12;14.63;;;6.13;;
4835;SDS011;66719;51.226;6.902;2023-04-24T05:40:39;16.53;;;6.07;;
4835;SDS011;66719;51.226;6.902;2023-04-24T05:43:06;14.20;;;5.80;;
4835;SDS011;66719;51.226;6.902;2023-04-24T05:45:32;16.87;;;6.67;;
4835;SDS011;66719;51.226;6.902;2023-04-24T05:48:10;14.60;;;6.47;;
4835;SDS011;66719;51.226;6.902;2023-04-24T05:50:37;15.93;;;6.93;;
4835;SDS011;66719;51.226;6.902;2023-04-24T05:53:03;14.80;;;6.50;;
4835;SDS011;66719;51.226;6.902;2023-04-24T05:55:30;15.63;;;7.00;;
4835;SDS011;66719;51.226;6.902;2023-04-24T05:57:57;13.70;;;6.33;;
4835;SDS011;66719;51.226;6.902;2023-04-24T06:00:24;13.87;;;6.63;;
4835;SDS011;66719;51.226;6.902;2023-04-24T06:02:51;18.30;;;7.20;;
4835;SDS011;66719;51.226;6.902;2023-04-24T06:05:19;20.33;;;6.90;;
4835;SDS011;66719;51.226;6.902;2023-04-24T06:07:46;15.97;;;6.63;;
4835;SDS011;66719;51.226;6.902;2023-04-24T06:10:12;17.17;;;6.40;;
4835;SDS011;66719;51.226;6.902;2023-04-24T06:12:39;15.70;;;6.60;;
4835;SDS011;66719;51.226;6.902;2023-04-24T06:15:05;17.13;;;6.60;;
4835;SDS011;66719;51.226;6.902;2023-04-24T06:17:33;14.97;;;7.07;;
4835;SDS011;66719;51.226;6.902;2023-04-24T06:19:59;15.10;;;7.50;;
4835;SDS011;66719;51.226;6.902;2023-04-24T06:22:26;15.27;;;7.83;;
4835;SDS011;66719;51.226;6.902;2023-04-24T06:24:52;15.10;;;6.30;;
4835;SDS011;66719;51.226;6.902;2023-04-24T06:27:19;13.20;;;6.27;;
4835;SDS011;66719;51.226;6.902;2023-04-24T06:29:45;15.60;;;5.57;;
4835;SDS011;66719;51.226;6.902;2023-04-24T06:32:14;13.70;;;5.60;;
4835;SDS011;66719;51.226;6.902;2023-04-24T06:34:40;14.23;;;6.03;;
4835;SDS011;66719;51.226;6.902;2023-04-24T06:37:08;16.57;;;7.10;;
4835;SDS011;66719;51.226;6.902;2023-04-24T06:39:34;14.30;;;5.77;;
4835;SDS011;66719;51.226;6.902;2023-04-24T06:42:01;17.00;;;7.33;;
4835;SDS011;66719;51.226;6.902;2023-04-24T06:44:27;16.97;;;7.20;;
4835;SDS011;66719;51.226;6.902;2023-04-24T06:46:54;19.03;;;6.60;;
4835;SDS011;66719;51.226;6.902;2023-04-24T06:49:20;16.70;;;6.23;;
4835;SDS011;66719;51.226;6.902;2023-04-24T06:51:47;11.57;;;5.03;;
4835;SDS011;66719;51.226;6.902;2023-04-24T06:54:13;12.80;;;6.03;;
4835;SDS011;66719;51.226;6.902;2023-04-24T06:56:41;12.87;;;5.20;;
4835;SDS011;66719;51.226;6.902;2023-04-24T06:59:07;11.73;;;4.30;;
4835;SDS011;66719;51.226;6.902;2023-04-24T07:01:34;13.60;;;4.73;;
4835;SDS011;66719;51.226;6.902;2023-04-24T07:04:00;12.00;;;4.30;;
4835;SDS011;66719;51.226;6.902;2023-04-24T07:06:27;12.77;;;3.90;;
4835;SDS011;66719;51.226;6.902;2023-04-24T07:08:56;13.80;;;4.47;;
4835;SDS011;66719;51.226;6.902;2023-04-24T07:11:23;13.00;;;4.37;;
4835;SDS011;66719;51.226;6.902;2023-04-24T07:13:50;13.93;;;4.40;;
4835;SDS011;66719;51.226;6.902;2023-04-24T07:16:16;10.40;;;3.80;;
4835;SDS011;66719;51.226;6.902;2023-04-24T07:18:43;14.67;;;4.37;;
4835;SDS011;66719;51.226;6.902;2023-04-24T07:21:09;10.90;;;3.70;;
4835;SDS011;66719;51.226;6.902;2023-04-24T07:23:36;11.40;;;4.50;;
4835;SDS011;66719;51.226;6.902;2023-04-24T07:26:02;11.10;;;3.50;;
4835;SDS011;66719;51.226;6.902;2023-04-24T07:28:29;11.23;;;3.43;;
4835;SDS011;66719;51.226;6.902;2023-04-24T07:30:59;10.10;;;3.50;;
4835;SDS011;66719;51.226;6.902;2023-04-24T07:33:26;9.80;;;3.10;;
4835;SDS011;66719;51.226;6.902;2023-04-24T07:35:53;13.80;;;3.13;;
4835;SDS011;66719;51.226;6.902;2023-04-24T07:38:19;8.50;;;2.43;;
4835;SDS011;66719;51.226;6.902;2023-04-24T07:40:49;8.83;;;2.70;;
4835;SDS011;66719;51.226;6.902;2023-04-24T07:43:15;10.90;;;2.73;;
4835;SDS011;66719;51.226;6.902;2023-04-24T07:45:42;9.03;;;2.27;;
4835;SDS011;66719;51.226;6.902;2023-04-24T07:48:09;7.73;;;1.83;;
4835;SDS011;66719;51.226;6.902;2023-04-24T07:50:35;10.90;;;1.87;;
4835;SDS011;66719;51.226;6.902;2023-04-24T07:53:02;7.70;;;1.77;;
4835;SDS011;66719;51.226;6.902;2023-04-24T07:55:29;12.60;;;1.90;;
4835;SDS011;66719;51.226;6.902;2023-04-24T07:57:55;12.17;;;1.43;;
4835;SDS011;66719;51.226;6.902;2023-04-24T08:00:22;7.97;;;1.73;;
4835;SDS011;66719;51.226;6.902;2023-04-24T08:02:48;8.23;;;1.70;;
4835;SDS011;66719;51.226;6.902;2023-04-24T08:05:15;10.50;;;3.20;;
4835;SDS011;66719;51.226;6.902;2023-04-24T08:07:42;8.40;;;1.10;;
4835;SDS011;66719;51.226;6.902;2023-04-24T08:10:12;8.20;;;1.03;;
4835;SDS011;66719;51.226;6.902;2023-04-24T08:12:39;7.43;;;1.43;;
4835;SDS011;66719;51.226;6.902;2023-04-24T08:15:06;6.57;;;1.00;;
4835;SDS011;66719;51.226;6.902;2023-04-24T08:17:34;7.20;;;1.50;;
4835;SDS011;66719;51.226;6.902;2023-04-24T08:20:02;7.60;;;1.23;;
4835;SDS011;66719;51.226;6.902;2023-04-24T08:22:30;8.27;;;1.33;;
4835;SDS011;66719;51.226;6.902;2023-04-24T08:24:57;7.77;;;1.60;;
4835;SDS011;66719;51.226;6.902;2023-04-24T08:27:26;9.70;;;1.60;;
4835;SDS011;66719;51.226;6.902;2023-04-24T08:29:53;8.10;;;1.43;;
4835;SDS011;66719;51.226;6.902;2023-04-24T08:32:20;8.70;;;1.83;;
4835;SDS011;66719;51.226;6.902;2023-04-24T08:34:47;7.50;;;1.50;;
4835;SDS011;66719;51.226;6.902;2023-04-24T08:37:15;10.37;;;1.80;;
4835;SDS011;66719;51.226;6.902;2023-04-24T08:39:41;8.20;;;2.00;;
4835;SDS011;66719;51.226;6.902;2023-04-24T08:42:08;7.40;;;2.00;;
4835;SDS011;66719;51.226;6.902;2023-04-24T08:44:35;9.27;;;1.87;;
4835;SDS011;66719;51.226;6.902;2023-04-24T08:47:02;9.23;;;2.17;;
4835;SDS011;66719;51.226;6.902;2023-04-24T08:49:29;12.20;;;2.10;;
4835;SDS011;66719;51.226;6.902;2023-04-24T08:51:56;7.60;;;2.03;;
4835;SDS011;66719;51.226;6.902;2023-04-24T08:54:23;8.40;;;2.47;;
4835;SDS011;66719;51.226;6.902;2023-04-24T08:56:51;9.13;;;2.80;;
4835;SDS011;66719;51.226;6.902;2023-04-24T08:59:20;10.57;;;2.83;;
4835;SDS011;66719;51.226;6.902;2023-04-24T09:01:48;10.53;;;3.07;;
4835;SDS011;66719;51.226;6.902;2023-04-24T09:04:17;11.33;;;3.37;;
4835;SDS011;66719;51.226;6.902;2023-04-24T09:06:47;10.23;;;2.80;;
4835;SDS011;66719;51.226;6.902;2023-04-24T09:09:15;10.90;;;3.77;;
4835;SDS011;66719;51.226;6.902;2023-04-24T09:11:42;10.93;;;3.43;;
4835;SDS011;66719;51.226;6.902;2023-04-24T09:14:09;10.33;;;3.20;;
4835;SDS011;66719;51.226;6.902;2023-04-24T09:16:36;11.37;;;2.97;;
4835;SDS011;66719;51.226;6.902;2023-04-24T09:19:03;12.47;;;3.20;;
4835;SDS011;66719;51.226;6.902;2023-04-24T09:21:33;9.17;;;2.80;;
4835;SDS011;66719;51.226;6.902;2023-04-24T09:24:03;8.73;;;2.67;;
4835;SDS011;66719;51.226;6.902;2023-04-24T09:26:31;11.00;;;3.03;;
4835;SDS011;66719;51.226;6.902;2023-04-24T09:29:01;9.40;;;3.07;;
4835;SDS011;66719;51.226;6.902;2023-04-24T09:31:28;11.67;;;3.20;;
4835;SDS011;66719;51.226;6.902;2023-04-24T09:34:02;12.00;;;4.40;;
4835;SDS011;66719;51.226;6.902;2023-04-24T09:36:37;10.03;;;3.40;;
4835;SDS011;66719;51.226;6.902;2023-04-24T09:39:09;9.90;;;3.57;;
4835;SDS011;66719;51.226;6.902;2023-04-24T09:41:44;11.80;;;4.00;;
4835;SDS011;66719;51.226;6.902;2023-04-24T09:46:43;11.07;;;4.20;;
4835;SDS011;66719;51.226;6.902;2023-04-24T09:49:15;11.63;;;3.93;;
4835;SDS011;66719;51.226;6.902;2023-04-24T09:51:42;13.60;;;3.93;;
4835;SDS011;66719;51.226;6.902;2023-04-24T09:54:13;12.00;;;4.37;;
4835;SDS011;66719;51.226;6.902;2023-04-24T09:56:44;11.87;;;3.80;;
4835;SDS011;66719;51.226;6.902;2023-04-24T09:59:13;15.07;;;4.67;;
4835;SDS011;66719;51.226;6.902;2023-04-24T10:01:41;14.17;;;5.23;;
4835;SDS011;66719;51.226;6.902;2023-04-24T10:04:15;14.37;;;5.30;;
4835;SDS011;66719;51.226;6.902;2023-04-24T10:06:50;18.83;;;5.40;;
4835;SDS011;66719;51.226;6.902;2023-04-24T10:09:18;14.23;;;5.20;;
4835;SDS011;66719;51.226;6.902;2023-04-24T10:11:47;18.50;;;6.23;;
4835;SDS011;66719;51.226;6.902;2023-04-24T10:14:16;15.10;;;6.07;;
4835;SDS011;66719;51.226;6.902;2023-04-24T10:16:44;17.90;;;6.80;;
4835;SDS011;66719;51.226;6.902;2023-04-24T10:19:13;20.23;;;6.70;;
4835;SDS011;66719;51.226;6.902;2023-04-24T10:21:41;14.03;;;6.77;;
4835;SDS011;66719;51.226;6.902;2023-04-24T10:24:12;18.37;;;6.37;;
4835;SDS011;66719;51.226;6.902;2023-04-24T10:26:40;18.20;;;6.93;;
4835;SDS011;66719;51.226;6.902;2023-04-24T10:29:07;21.40;;;7.03;;
4835;SDS011;66719;51.226;6.902;2023-04-24T10:31:38;16.67;;;7.00;;
4835;SDS011;66719;51.226;6.902;2023-04-24T10:34:05;19.23;;;7.50;;
4835;SDS011;66719;51.226;6.902;2023-04-24T10:36:33;17.03;;;6.57;;
4835;SDS011;66719;51.226;6.902;2023-04-24T10:39:02;19.50;;;7.87;;
4835;SDS011;66719;51.226;6.902;2023-04-24T10:41:32;20.60;;;7.60;;
4835;SDS011;66719;51.226;6.902;2023-04-24T10:46:33;18.50;;;6.93;;
4835;SDS011;66719;51.226;6.902;2023-04-24T10:49:00;18.53;;;5.33;;
4835;SDS011;66719;51.226;6.902;2023-04-24T10:51:44;14.97;;;5.00;;
4835;SDS011;66719;51.226;6.902;2023-04-24T10:57:25;14.97;;;4.70;;
4835;SDS011;66719;51.226;6.902;2023-04-24T10:59:49;13.83;;;4.60;;
4835;SDS011;66719;51.226;6.902;2023-04-24T11:02:17;17.17;;;5.07;;
4835;SDS011;66719;51.226;6.902;2023-04-24T11:05:03;18.20;;;5.23;;
4835;SDS011;66719;51.226;6.902;2023-04-24T11:07:39;16.73;;;5.20;;
4835;SDS011;66719;51.226;6.902;2023-04-24T11:10:37;21.10;;;6.50;;
4835;SDS011;66719;51.226;6.902;2023-04-24T11:13:06;24.33;;;5.70;;
4835;SDS011;66719;51.226;6.902;2023-04-24T11:15:34;23.23;;;6.13;;
4835;SDS011;66719;51.226;6.902;2023-04-24T11:18:00;20.30;;;6.80;;
4835;SDS011;66719;51.226;6.902;2023-04-24T11:20:27;24.37;;;7.07;;
4835;SDS011;66719;51.226;6.902;2023-04-24T11:22:54;19.13;;;6.50;;
4835;SDS011;66719;51.226;6.902;2023-04-24T11:25:21;16.83;;;6.20;;
4835;SDS011;66719;51.226;6.902;2023-04-24T11:27:49;20.57;;;6.07;;
4835;SDS011;66719;51.226;6.902;2023-04-24T11:30:17;18.60;;;4.90;;
4835;SDS011;66719;51.226;6.902;2023-04-24T11:32:49;18.07;;;4.50;;
4835;SDS011;66719;51.226;6.902;2023-04-24T11:35:20;24.20;;;4.60;;
4835;SDS011;66719;51.226;6.902;2023-04-24T11:37:54;18.83;;;4.40;;
4835;SDS011;66719;51.226;6.902;2023-04-24T11:40:40;18.13;;;4.53;;
4835;SDS011;66719;51.226;6.902;2023-04-24T11:43:08;17.17;;;4.13;;
4835;SDS011;66719;51.226;6.902;2023-04-24T11:45:35;19.93;;;4.57;;
4835;SDS011;66719;51.226;6.902;2023-04-24T11:48:02;15.60;;;4.77;;
4835;SDS011;66719;51.226;6.902;2023-04-24T11:50:29;15.80;;;4.37;;
4835;SDS011;66719;51.226;6.902;2023-04-24T11:52:56;20.17;;;4.80;;
4835;SDS011;66719;51.226;6.902;2023-04-24T11:57:54;21.80;;;4.73;;
4835;SDS011;66719;51.226;6.902;2023-04-24T12:00:27;19.13;;;5.20;;
4835;SDS011;66719;51.226;6.902;2023-04-24T12:03:06;22.60;;;5.73;;
4835;SDS011;66719;51.226;6.902;2023-04-24T12:05:34;18.63;;;5.00;;
4835;SDS011;66719;51.226;6.902;2023-04-24T12:08:01;18.60;;;5.40;;
4835;SDS011;66719;51.226;6.902;2023-04-24T12:10:29;18.57;;;5.20;;
4835;SDS011;66719;51.226;6.902;2023-04-24T12:12:58;19.07;;;4.83;;
4835;SDS011;66719;51.226;6.902;2023-04-24T12:15:26;25.00;;;5.00;;
4835;SDS011;66719;51.226;6.902;2023-04-24T12:17:53;17.60;;;4.50;;
4835;SDS011;66719;51.226;6.902;2023-04-24T12:20:24;19.03;;;4.93;;
4835;SDS011;66719;51.226;6.902;2023-04-24T12:22:53;21.50;;;4.23;;
4835;SDS011;66719;51.226;6.902;2023-04-24T12:25:22;16.27;;;3.83;;
4835;SDS011;66719;51.226;6.902;2023-04-24T12:28:34;19.00;;;4.73;;
4835;SDS011;66719;51.226;6.902;2023-04-24T12:30:44;20.20;;;4.20;;
4835;SDS011;66719;51.226;6.902;2023-04-24T12:33:21;23.37;;;4.60;;
4835;SDS011;66719;51.226;6.902;2023-04-24T12:35:50;18.90;;;4.00;;
4835;SDS011;66719;51.226;6.902;2023-04-24T12:38:23;17.00;;;4.50;;
4835;SDS011;66719;51.226;6.902;2023-04-24T12:41:04;13.53;;;3.40;;
4835;SDS011;66719;51.226;6.902;2023-04-24T12:43:40;17.40;;;3.90;;
4835;SDS011;66719;51.226;6.902;2023-04-24T12:46:17;20.33;;;5.23;;
4835;SDS011;66719;51.226;6.902;2023-04-24T12:48:47;13.30;;;3.20;;
4835;SDS011;66719;51.226;6.902;2023-04-24T12:51:13;11.57;;;2.63;;
4835;SDS011;66719;51.226;6.902;2023-04-24T12:53:40;15.23;;;2.93;;
4835;SDS011;66719;51.226;6.902;2023-04-24T12:56:07;12.00;;;3.23;;
4835;SDS011;66719;51.226;6.902;2023-04-24T12:58:33;16.03;;;2.80;;
4835;SDS011;66719;51.226;6.902;2023-04-24T13:01:00;14.93;;;2.63;;
4835;SDS011;66719;51.226;6.902;2023-04-24T13:03:27;11.70;;;2.27;;
4835;SDS011;66719;51.226;6.902;2023-04-24T13:05:54;12.00;;;2.60;;
4835;SDS011;66719;51.226;6.902;2023-04-24T13:08:20;18.30;;;2.93;;
4835;SDS011;66719;51.226;6.902;2023-04-24T13:10:46;10.57;;;2.03;;
4835;SDS011;66719;51.226;6.902;2023-04-24T13:13:13;8.97;;;2.07;;
4835;SDS011;66719;51.226;6.902;2023-04-24T13:15:40;11.33;;;2.10;;
4835;SDS011;66719;51.226;6.902;2023-04-24T13:18:06;13.50;;;2.20;;
4835;SDS011;66719;51.226;6.902;2023-04-24T13:20:33;10.97;;;2.10;;
4835;SDS011;66719;51.226;6.902;2023-04-24T13:23:01;11.50;;;2.20;;
4835;SDS011;66719;51.226;6.902;2023-04-24T13:25:28;12.10;;;2.00;;
4835;SDS011;66719;51.226;6.902;2023-04-24T13:27:55;10.67;;;2.30;;
4835;SDS011;66719;51.226;6.902;2023-04-24T13:30:22;10.83;;;2.03;;
4835;SDS011;66719;51.226;6.902;2023-04-24T13:32:48;14.77;;;2.50;;
4835;SDS011;66719;51.226;6.902;2023-04-24T13:35:15;11.17;;;2.13;;
4835;SDS011;66719;51.226;6.902;2023-04-24T13:37:41;9.60;;;2.00;;
4835;SDS011;66719;51.226;6.902;2023-04-24T13:40:08;9.43;;;2.50;;
4835;SDS011;66719;51.226;6.902;2023-04-24T13:42:35;9.40;;;2.00;;
4835;SDS011;66719;51.226;6.902;2023-04-24T13:45:01;16.47;;;2.30;;
4835;SDS011;66719;51.226;6.902;2023-04-24T13:47:48;9.50;;;2.00;;
4835;SDS011;66719;51.226;6.902;2023-04-24T13:50:17;15.20;;;1.93;;
4835;SDS011;66719;51.226;6.902;2023-04-24T13:52:44;11.00;;;1.83;;
4835;SDS011;66719;51.226;6.902;2023-04-24T13:55:11;13.23;;;1.90;;
4835;SDS011;66719;51.226;6.902;2023-04-24T13:57:37;15.87;;;2.50;;
4835;SDS011;66719;51.226;6.902;2023-04-24T14:00:04;13.80;;;2.40;;
4835;SDS011;66719;51.226;6.902;2023-04-24T14:02:32;12.90;;;2.60;;
4835;SDS011;66719;51.226;6.902;2023-04-24T14:04:59;12.67;;;2.30;;
4835;SDS011;66719;51.226;6.902;2023-04-24T14:07:26;10.40;;;2.10;;
4835;SDS011;66719;51.226;6.902;2023-04-24T14:09:52;13.00;;;2.00;;
4835;SDS011;66719;51.226;6.902;2023-04-24T14:12:18;8.77;;;2.00;;
4835;SDS011;66719;51.226;6.902;2023-04-24T14:14:46;12.10;;;2.23;;
4835;SDS011;66719;51.226;6.902;2023-04-24T14:17:14;15.67;;;2.70;;
4835;SDS011;66719;51.226;6.902;2023-04-24T14:19:41;9.27;;;2.10;;
4835;SDS011;66719;51.226;6.902;2023-04-24T14:22:07;15.97;;;2.87;;
4835;SDS011;66719;51.226;6.902;2023-04-24T14:24:33;8.63;;;1.80;;
4835;SDS011;66719;51.226;6.902;2023-04-24T14:27:00;9.90;;;2.03;;
4835;SDS011;66719;51.226;6.902;2023-04-24T14:29:27;8.67;;;1.80;;
4835;SDS011;66719;51.226;6.902;2023-04-24T14:31:53;9.87;;;1.80;;
4835;SDS011;66719;51.226;6.902;2023-04-24T14:34:20;9.30;;;1.90;;
4835;SDS011;66719;51.226;6.902;2023-04-24T14:36:47;10.27;;;1.63;;
4835;SDS011;66719;51.226;6.902;2023-04-24T14:39:13;12.00;;;1.97;;
4835;SDS011;66719;51.226;6.902;2023-04-24T14:41:40;13.60;;;2.23;;
4835;SDS011;66719;51.226;6.902;2023-04-24T14:44:06;12.80;;;2.70;;
4835;SDS011;66719;51.226;6.902;2023-04-24T14:46:33;11.83;;;1.83;;
4835;SDS011;66719;51.226;6.902;2023-04-24T14:48:59;9.23;;;1.90;;
4835;SDS011;66719;51.226;6.902;2023-04-24T14:51:26;13.00;;;2.00;;
4835;SDS011;66719;51.226;6.902;2023-04-24T14:53:53;11.57;;;2.20;;
4835;SDS011;66719;51.226;6.902;2023-04-24T14:56:19;9.30;;;1.87;;
4835;SDS011;66719;51.226;6.902;2023-04-24T14:58:46;10.90;;;2.10;;
4835;SDS011;66719;51.226;6.902;2023-04-24T15:01:12;11.60;;;2.00;;
4835;SDS011;66719;51.226;6.902;2023-04-24T15:03:39;9.40;;;1.87;;
4835;SDS011;66719;51.226;6.902;2023-04-24T15:06:06;10.40;;;2.27;;